Time;durP1;ratioP1;P1;durP2;ratioP2;P2;SDS_P1;SDS_P2;PMS_P1;PMS_P2;Temp;Humidity;BMP_temperature;BMP_pressure;BME280_temperature;BME280_humidity;BME280_pressure;Samples;Min_cycle;Max_cycle;Signal;HPM_P1;HPM_P2
2023/05/17 00:00:19;;;;;;;0.50;0.40;;;8.00;99.90;;;;;;5047766;28;20222;-82
2023/05/17 00:02:45;;;;;;;0.50;0.40;;;8.10;99.90;;;;;;5045283;28;20301;-80
2023/05/17 00:05:12;;;;;;;0.50;0.40;;;8.00;99.90;;;;;;5044378;28;20196;-81
2023/05/17 00:07:40;;;;;;;0.50;0.40;;;7.90;99.90;;;;;;5045461;28;20191;-82
2023/05/17 00:10:08;;;;;;;0.50;0.40;;;8.00;99.90;;;;;;5047697;28;20229;-81
2023/05/17 00:12:35;;;;;;;0.50;0.40;;;7.90;99.90;;;;;;5046751;28;20186;-81
2023/05/17 00:15:01;;;;;;;0.50;0.40;;;7.90;99.90;;;;;;5044342;28;20191;-79
2023/05/17 00:17:28;;;;;;;0.50;0.40;;;8.00;99.90;;;;;;5044311;28;20195;-81
2023/05/17 00:19:55;;;;;;;0.50;0.40;;;7.90;99.90;;;;;;5036030;28;20210;-82
2023/05/17 00:22:22;;;;;;;0.60;0.60;;;7.90;99.90;;;;;;5044283;28;20221;-81
2023/05/17 00:24:50;;;;;;;0.50;0.40;;;7.90;99.90;;;;;;5046270;28;20196;-81
2023/05/17 00:27:17;;;;;;;0.50;0.40;;;7.80;99.90;;;;;;5047415;28;20198;-81
2023/05/17 00:29:44;;;;;;;0.50;0.40;;;7.80;99.90;;;;;;5044240;28;20217;-82
2023/05/17 00:32:10;;;;;;;0.50;0.40;;;7.80;99.90;;;;;;5043602;28;20227;-81
2023/05/17 00:34:37;;;;;;;0.50;0.40;;;7.80;99.90;;;;;;5044644;28;20196;-81
2023/05/17 00:37:04;;;;;;;0.50;0.40;;;7.70;99.90;;;;;;5047199;28;20204;-78
2023/05/17 00:39:31;;;;;;;0.50;0.40;;;7.70;99.90;;;;;;5046944;28;20250;-79
2023/05/17 00:42:00;;;;;;;0.50;0.40;;;7.70;99.90;;;;;;5043855;28;20205;-80
2023/05/17 00:44:27;;;;;;;0.50;0.40;;;7.70;99.90;;;;;;5043032;28;20198;-81
2023/05/17 00:46:54;;;;;;;0.50;0.40;;;7.70;99.90;;;;;;5046765;28;20197;-80
2023/05/17 00:49:21;;;;;;;0.50;0.40;;;7.60;99.90;;;;;;5046735;28;20215;-80
2023/05/17 00:51:48;;;;;;;0.50;0.40;;;7.60;99.90;;;;;;5044173;28;20202;-81
2023/05/17 00:54:16;;;;;;;0.50;0.40;;;7.60;99.90;;;;;;5042939;28;20192;-82
2023/05/17 00:56:43;;;;;;;0.50;0.40;;;7.60;99.90;;;;;;5045033;28;20191;-81
2023/05/17 00:59:13;;;;;;;0.50;0.40;;;7.60;99.90;;;;;;5046440;28;20219;-81
2023/05/17 01:01:42;;;;;;;0.50;0.40;;;7.60;99.90;;;;;;5045375;28;20199;-80
2023/05/17 01:04:09;;;;;;;0.50;0.40;;;7.70;99.90;;;;;;5043446;28;20226;-81
2023/05/17 01:06:36;;;;;;;0.50;0.40;;;7.60;99.90;;;;;;5043274;28;20244;-81
2023/05/17 01:09:03;;;;;;;0.50;0.40;;;7.60;99.90;;;;;;5046430;28;20194;-81
2023/05/17 01:11:39;;;;;;;0.50;0.40;;;7.60;99.90;;;;;;5046297;28;20222;-81
2023/05/17 01:14:18;;;;;;;0.50;0.40;;;7.60;99.90;;;;;;5035517;28;20195;-82
2023/05/17 01:16:51;;;;;;;0.50;0.40;;;7.60;99.90;;;;;;5044899;28;20214;-81
2023/05/17 01:19:40;;;;;;;0.60;0.40;;;7.70;99.90;;;;;;5045938;28;20221;-81
2023/05/17 01:22:17;;;;;;;0.50;0.40;;;7.70;99.90;;;;;;5035415;28;20292;-81
2023/05/17 01:24:52;;;;;;;0.50;0.40;;;7.70;99.90;;;;;;5044215;28;20206;-79
2023/05/17 01:27:21;;;;;;;0.50;0.40;;;7.70;99.90;;;;;;5046166;28;20587;-81
2023/05/17 01:29:50;;;;;;;0.50;0.40;;;7.60;99.90;;;;;;5043385;28;20229;-81
2023/05/17 01:32:18;;;;;;;0.50;0.40;;;7.60;99.90;;;;;;5042245;28;20295;-81
2023/05/17 01:34:45;;;;;;;0.50;0.40;;;7.60;99.90;;;;;;5042328;28;20580;-80
2023/05/17 01:37:12;;;;;;;1.13;1.13;;;7.60;99.90;;;;;;5046295;28;20199;-80
2023/05/17 01:39:40;;;;;;;0.50;0.40;;;7.60;99.90;;;;;;5066601;28;20258;-81
2023/05/17 01:42:16;;;;;;;0.50;0.40;;;7.70;99.90;;;;;;5064242;28;20188;-84
2023/05/17 01:44:50;;;;;;;0.50;0.40;;;7.60;99.90;;;;;;5066221;28;20183;-82
2023/05/17 01:47:29;;;;;;;0.60;0.60;;;7.60;99.90;;;;;;5057261;28;20194;-81
2023/05/17 01:49:59;;;;;;;0.60;0.60;;;7.60;99.90;;;;;;5042917;28;20210;-82
2023/05/17 01:52:30;;;;;;;0.90;0.90;;;7.60;99.90;;;;;;5042329;28;20235;-79
2023/05/17 01:55:06;;;;;;;0.50;0.40;;;7.60;99.90;;;;;;5045385;28;20221;-79
2023/05/17 01:57:36;;;;;;;0.50;0.40;;;7.60;99.90;;;;;;5045068;28;20194;-79
2023/05/17 02:00:06;;;;;;;0.50;0.40;;;7.60;99.90;;;;;;5034579;28;20226;-81
2023/05/17 02:02:33;;;;;;;0.50;0.45;;;7.50;99.90;;;;;;5042326;28;20191;-81
2023/05/17 02:05:00;;;;;;;0.50;0.40;;;7.50;99.90;;;;;;5034139;28;20202;-80
2023/05/17 02:07:27;;;;;;;0.50;0.40;;;7.40;99.90;;;;;;5042284;28;20195;-81
2023/05/17 02:09:54;;;;;;;0.50;0.40;;;7.40;99.90;;;;;;5044349;28;20298;-79
2023/05/17 02:12:20;;;;;;;0.50;0.40;;;7.40;99.90;;;;;;5045125;28;20198;-80
2023/05/17 02:14:47;;;;;;;0.50;0.40;;;7.40;99.90;;;;;;5043434;28;20205;-81
2023/05/17 02:17:16;;;;;;;0.50;0.40;;;7.30;99.90;;;;;;5038971;28;20285;-81
2023/05/17 02:19:43;;;;;;;0.50;0.40;;;7.20;99.90;;;;;;5043998;28;20253;-81
2023/05/17 02:22:09;;;;;;;0.50;0.40;;;7.30;99.90;;;;;;5041862;28;20562;-82
2023/05/17 02:24:36;;;;;;;0.50;0.40;;;7.30;99.90;;;;;;5041632;28;20207;-80
2023/05/17 02:27:03;;;;;;;0.50;0.40;;;7.30;99.90;;;;;;5034102;28;20210;-81
2023/05/17 02:29:31;;;;;;;0.50;0.40;;;7.30;99.90;;;;;;5041756;28;20777;-81
2023/05/17 02:31:58;;;;;;;0.50;0.40;;;7.30;99.90;;;;;;5044487;28;20256;-80
2023/05/17 02:34:26;;;;;;;1.85;1.75;;;7.30;99.90;;;;;;5044750;28;20187;-81
2023/05/17 02:36:53;;;;;;;3.30;3.10;;;7.30;99.90;;;;;;5042336;28;20202;-82
2023/05/17 02:39:19;;;;;;;3.60;2.15;;;7.40;99.90;;;;;;5042005;28;20310;-81
2023/05/17 02:41:46;;;;;;;0.50;0.40;;;7.40;99.90;;;;;;5042589;28;20302;-81
2023/05/17 02:44:13;;;;;;;0.50;0.40;;;7.30;99.90;;;;;;5044622;28;20214;-81
2023/05/17 02:46:39;;;;;;;0.50;0.50;;;7.20;99.90;;;;;;5044893;28;20197;-80
2023/05/17 02:49:06;;;;;;;0.50;0.40;;;7.30;99.90;;;;;;5037034;28;20190;-81
2023/05/17 02:51:34;;;;;;;0.50;0.40;;;7.20;99.90;;;;;;5045240;28;20190;-82
2023/05/17 02:54:01;;;;;;;0.50;0.40;;;7.20;99.90;;;;;;5041648;28;20195;-78
2023/05/17 02:56:28;;;;;;;0.50;0.40;;;7.20;99.90;;;;;;5041561;28;20552;-81
2023/05/17 02:58:56;;;;;;;0.50;0.40;;;7.10;99.90;;;;;;5043149;28;20195;-81
2023/05/17 03:01:23;;;;;;;0.50;0.40;;;7.20;99.90;;;;;;5045535;28;20570;-81
2023/05/17 03:03:49;;;;;;;0.50;0.40;;;7.20;99.90;;;;;;5042761;28;20263;-81
2023/05/17 03:06:16;;;;;;;0.50;0.40;;;7.20;99.90;;;;;;5041450;28;20205;-82
2023/05/17 03:08:44;;;;;;;1.05;0.85;;;7.30;99.90;;;;;;5043565;28;20582;-81
2023/05/17 03:11:11;;;;;;;0.50;0.40;;;7.40;99.90;;;;;;5048935;28;20214;-81
2023/05/17 03:13:38;;;;;;;0.50;0.40;;;7.50;99.90;;;;;;5048767;28;20195;-80
2023/05/17 03:16:05;;;;;;;0.50;0.40;;;7.60;99.90;;;;;;5037300;28;20202;-81
2023/05/17 03:18:32;;;;;;;0.82;0.82;;;7.70;99.90;;;;;;5045067;28;20200;-80
2023/05/17 03:20:59;;;;;;;0.50;0.40;;;7.80;99.90;;;;;;5047439;28;20215;-82
2023/05/17 03:23:25;;;;;;;0.50;0.40;;;7.80;99.90;;;;;;5048722;28;20210;-81
2023/05/17 03:25:53;;;;;;;0.50;0.40;;;7.90;99.90;;;;;;5046854;28;20205;-80
2023/05/17 03:28:20;;;;;;;0.50;0.40;;;8.00;99.90;;;;;;5044994;28;20574;-81
2023/05/17 03:30:47;;;;;;;0.50;0.40;;;8.10;99.90;;;;;;5045760;28;20227;-83
2023/05/17 03:33:14;;;;;;;0.50;0.40;;;8.10;99.90;;;;;;5044032;28;20196;-80
2023/05/17 03:35:40;;;;;;;0.50;0.40;;;8.20;99.90;;;;;;5045309;28;20199;-80
2023/05/17 03:38:08;;;;;;;0.50;0.40;;;8.30;99.90;;;;;;5037785;28;20191;-81
2023/05/17 03:40:35;;;;;;;0.50;0.40;;;8.40;99.90;;;;;;5045462;28;20243;-81
2023/05/17 03:43:03;;;;;;;0.60;0.50;;;8.40;99.90;;;;;;5047591;28;20202;-81
2023/05/17 03:45:30;;;;;;;0.50;0.40;;;8.50;99.90;;;;;;5048745;28;20194;-81
2023/05/17 03:47:56;;;;;;;0.52;0.43;;;8.60;99.90;;;;;;5046780;28;20205;-83
2023/05/17 03:50:23;;;;;;;0.50;0.40;;;8.60;99.90;;;;;;5046716;28;20219;-81
2023/05/17 03:52:50;;;;;;;0.50;0.40;;;8.60;99.90;;;;;;5047136;28;20204;-82
2023/05/17 03:55:17;;;;;;;0.75;0.75;;;8.70;99.90;;;;;;5049808;28;20257;-81
2023/05/17 03:57:43;;;;;;;0.50;0.40;;;8.70;99.90;;;;;;5049021;28;20195;-81
2023/05/17 04:00:13;;;;;;;2.30;2.15;;;8.80;99.90;;;;;;5046272;28;20215;-80
2023/05/17 04:02:40;;;;;;;0.50;0.50;;;8.80;99.90;;;;;;5046197;28;20210;-79
2023/05/17 04:05:07;;;;;;;0.50;0.40;;;8.80;99.90;;;;;;5049201;28;20211;-80
2023/05/17 04:07:34;;;;;;;0.50;0.40;;;8.80;99.90;;;;;;5050268;28;20195;-80
2023/05/17 04:10:01;;;;;;;0.70;0.70;;;8.90;99.90;;;;;;5046421;28;20229;-82
2023/05/17 04:12:28;;;;;;;0.50;0.40;;;8.90;99.90;;;;;;5044322;28;20263;-82
2023/05/17 04:14:56;;;;;;;0.50;0.40;;;8.90;99.90;;;;;;5047824;28;20192;-83
2023/05/17 04:17:24;;;;;;;0.50;0.40;;;9.00;99.90;;;;;;5049243;28;20202;-83
2023/05/17 04:19:51;;;;;;;2.15;1.80;;;9.00;99.90;;;;;;5047538;28;20222;-82
2023/05/17 04:22:17;;;;;;;0.80;0.80;;;9.10;99.90;;;;;;5045500;28;20201;-82
2023/05/17 04:24:44;;;;;;;2.78;2.05;;;9.10;99.90;;;;;;5045807;28;20219;-81
2023/05/17 04:27:11;;;;;;;0.50;0.40;;;9.10;99.90;;;;;;5043141;28;20664;-81
2023/05/17 04:29:39;;;;;;;0.50;0.40;;;9.10;99.90;;;;;;5043366;28;20268;-82
2023/05/17 04:32:07;;;;;;;0.50;0.40;;;9.10;99.90;;;;;;5047868;28;20191;-81
2023/05/17 04:34:35;;;;;;;0.50;0.40;;;9.10;99.90;;;;;;5048644;28;20194;-80
2023/05/17 04:37:02;;;;;;;0.50;0.40;;;9.20;99.90;;;;;;5045336;28;20217;-81
2023/05/17 04:39:30;;;;;;;0.50;0.40;;;9.20;99.90;;;;;;5045377;28;20215;-80
2023/05/17 04:41:56;;;;;;;0.50;0.40;;;9.20;99.90;;;;;;5046558;28;20199;-77
2023/05/17 04:44:23;;;;;;;0.90;0.88;;;9.20;99.90;;;;;;5048866;28;20214;-81
2023/05/17 04:46:50;;;;;;;2.55;1.73;;;9.30;99.90;;;;;;5036477;28;20210;-81
2023/05/17 04:49:17;;;;;;;0.50;0.40;;;9.40;99.90;;;;;;5051869;28;20724;-80
2023/05/17 04:51:46;;;;;;;0.50;0.40;;;9.40;99.90;;;;;;5044747;28;20234;-80
2023/05/17 04:54:12;;;;;;;0.50;0.40;;;9.40;99.90;;;;;;5036742;28;20195;-80
2023/05/17 04:56:39;;;;;;;0.50;0.40;;;9.40;99.90;;;;;;5044613;28;20709;-81
2023/05/17 04:59:06;;;;;;;0.50;0.40;;;9.40;99.90;;;;;;5047232;28;20213;-81
2023/05/17 05:01:34;;;;;;;0.50;0.40;;;9.40;99.90;;;;;;5047890;28;20207;-81
2023/05/17 05:04:05;;;;;;;1.75;1.70;;;9.40;99.90;;;;;;5044625;28;20246;-78
2023/05/17 05:06:32;;;;;;;0.50;0.40;;;9.30;99.90;;;;;;5043904;28;20694;-81
2023/05/17 05:09:00;;;;;;;0.50;0.40;;;9.30;99.90;;;;;;5045619;28;20294;-82
2023/05/17 05:11:27;;;;;;;0.50;0.40;;;9.30;99.90;;;;;;5047183;28;20199;-81
2023/05/17 05:13:54;;;;;;;0.52;0.40;;;9.50;99.90;;;;;;5046660;28;20665;-78
2023/05/17 05:16:21;;;;;;;0.50;0.40;;;9.60;99.90;;;;;;5047611;28;20198;-81
2023/05/17 05:18:47;;;;;;;0.50;0.40;;;9.70;99.90;;;;;;5046697;28;20569;-79
2023/05/17 05:21:14;;;;;;;0.50;0.40;;;9.80;99.90;;;;;;5043098;28;20587;-78
2023/05/17 05:23:41;;;;;;;0.50;0.50;;;9.90;99.90;;;;;;5044294;28;20195;-81
2023/05/17 05:26:09;;;;;;;0.50;0.40;;;10.00;99.90;;;;;;5047007;28;20207;-79
2023/05/17 05:28:36;;;;;;;0.50;0.40;;;10.20;99.90;;;;;;5046996;28;20194;-80
2023/05/17 05:31:02;;;;;;;0.50;0.40;;;10.20;99.90;;;;;;5054349;28;20215;-82
2023/05/17 05:33:30;;;;;;;0.50;0.40;;;10.30;99.90;;;;;;5047718;28;20210;-81
2023/05/17 05:35:57;;;;;;;0.50;0.40;;;10.30;99.90;;;;;;5046574;28;20199;-81
2023/05/17 05:38:24;;;;;;;0.50;0.40;;;10.40;99.90;;;;;;5043940;28;20688;-81
2023/05/17 05:40:51;;;;;;;0.50;0.40;;;10.50;99.90;;;;;;5044253;28;20339;-80
2023/05/17 05:43:19;;;;;;;0.50;0.40;;;10.50;99.90;;;;;;5050235;28;20199;-80
2023/05/17 05:45:46;;;;;;;0.52;0.50;;;10.50;99.90;;;;;;5047232;28;20326;-80
2023/05/17 05:48:13;;;;;;;0.50;0.40;;;10.50;99.90;;;;;;5043513;28;20195;-80
2023/05/17 05:50:41;;;;;;;0.50;0.40;;;10.50;99.90;;;;;;5043895;28;20215;-80
2023/05/17 05:53:08;;;;;;;0.50;0.40;;;10.70;99.90;;;;;;5046106;28;20280;-82
2023/05/17 05:55:35;;;;;;;0.50;0.40;;;10.80;99.90;;;;;;5069257;28;20247;-82
2023/05/17 05:58:01;;;;;;;0.50;0.40;;;10.90;99.90;;;;;;5064437;28;20179;-83
2023/05/17 06:00:30;;;;;;;0.50;0.45;;;11.00;99.90;;;;;;5067509;28;20285;-81
2023/05/17 06:02:56;;;;;;;1.05;0.98;;;11.20;99.90;;;;;;5065257;28;20469;-80
2023/05/17 06:05:23;;;;;;;0.50;0.40;;;12.10;99.90;;;;;;5055286;28;20287;-81
2023/05/17 06:07:50;;;;;;;0.67;0.67;;;13.40;99.90;;;;;;5058238;28;20194;-84
2023/05/17 06:10:17;;;;;;;3.37;3.13;;;14.80;99.90;;;;;;5068622;28;20836;-82
2023/05/17 06:12:44;;;;;;;1.90;0.83;;;15.60;99.90;;;;;;5035803;28;20960;-82
2023/05/17 06:15:11;;;;;;;1.13;0.83;;;16.40;99.90;;;;;;5037532;28;20434;-81
2023/05/17 06:17:39;;;;;;;1.20;1.17;;;17.00;99.90;;;;;;5047216;28;20515;-81
2023/05/17 06:20:07;;;;;;;0.50;0.40;;;16.60;99.90;;;;;;5044204;28;20552;-82
2023/05/17 06:22:34;;;;;;;0.50;0.30;;;15.80;99.90;;;;;;5053186;28;20441;-82
2023/05/17 06:25:01;;;;;;;0.50;0.30;;;15.60;99.90;;;;;;5043858;28;21030;-81
2023/05/17 06:27:28;;;;;;;0.50;0.30;;;15.40;99.90;;;;;;5042986;28;20815;-81
2023/05/17 06:29:54;;;;;;;0.73;0.70;;;16.00;99.90;;;;;;5041635;28;20461;-81
2023/05/17 06:32:21;;;;;;;0.63;0.60;;;16.40;99.90;;;;;;5046141;28;20541;-81
2023/05/17 06:34:49;;;;;;;0.50;0.40;;;16.30;99.90;;;;;;5053818;28;20470;-81
2023/05/17 06:37:16;;;;;;;0.50;0.30;;;15.90;99.90;;;;;;5047545;28;20441;-81
2023/05/17 06:39:43;;;;;;;0.50;0.40;;;16.30;99.90;;;;;;5047994;28;20460;-83
2023/05/17 06:42:09;;;;;;;1.63;1.53;;;16.10;99.90;;;;;;5038726;28;20449;-82
2023/05/17 06:44:36;;;;;;;0.50;0.40;;;16.20;99.90;;;;;;5051226;28;20988;-82
2023/05/17 06:47:03;;;;;;;0.60;0.60;;;16.90;99.90;;;;;;5051341;28;20477;-82
2023/05/17 06:49:30;;;;;;;0.50;0.30;;;17.10;99.90;;;;;;5046587;28;20457;-80
2023/05/17 06:52:02;;;;;;;0.50;0.37;;;16.50;99.90;;;;;;5045882;28;20446;-82
2023/05/17 06:54:29;;;;;;;0.60;0.50;;;16.20;99.90;;;;;;5048902;28;20456;-83
2023/05/17 06:56:59;;;;;;;1.13;0.60;;;16.30;99.90;;;;;;5047647;28;20456;-83
2023/05/17 06:59:26;;;;;;;0.50;0.30;;;16.90;99.90;;;;;;5044256;28;20466;-83
2023/05/17 07:01:53;;;;;;;0.50;0.40;;;17.80;99.90;;;;;;5046036;28;20866;-83
2023/05/17 07:04:20;;;;;;;0.50;0.30;;;18.80;99.90;;;;;;5037735;28;20492;-83
2023/05/17 07:06:47;;;;;;;0.50;0.40;;;19.60;94.30;;;;;;5045941;28;20529;-83
2023/05/17 07:09:15;;;;;;;0.50;0.40;;;20.50;91.80;;;;;;5048214;28;21074;-82
2023/05/17 07:11:41;;;;;;;0.50;0.30;;;21.50;84.80;;;;;;5042204;28;20434;-82
2023/05/17 07:14:08;;;;;;;0.50;0.40;;;21.10;77.60;;;;;;5047312;28;20446;-83
2023/05/17 07:16:35;;;;;;;0.70;0.50;;;20.40;79.70;;;;;;5043464;28;20817;-81
2023/05/17 07:19:02;;;;;;;0.50;0.40;;;21.20;78.20;;;;;;5053168;28;20803;-80
2023/05/17 07:21:29;;;;;;;0.50;0.30;;;21.30;77.80;;;;;;5045409;28;20832;-81
2023/05/17 07:23:55;;;;;;;0.93;0.93;;;22.00;81.20;;;;;;5044703;28;20504;-81
2023/05/17 07:26:23;;;;;;;0.50;0.40;;;23.30;75.60;;;;;;5053367;28;20473;-82
2023/05/17 07:28:50;;;;;;;0.57;0.50;;;22.90;69.00;;;;;;5045068;28;20441;-80
2023/05/17 07:31:17;;;;;;;0.50;0.37;;;21.90;68.90;;;;;;5048159;28;20460;-82
2023/05/17 07:33:44;;;;;;;0.50;0.30;;;22.50;73.80;;;;;;5048379;28;20445;-81
2023/05/17 07:36:11;;;;;;;0.50;0.40;;;22.10;64.80;;;;;;5045765;28;20466;-78
2023/05/17 07:38:38;;;;;;;1.17;1.13;;;20.90;66.30;;;;;;5044999;28;20815;-81
2023/05/17 07:41:08;;;;;;;0.50;0.30;;;20.70;67.60;;;;;;5053132;28;20967;-81
2023/05/17 07:43:36;;;;;;;0.97;0.97;;;21.30;67.70;;;;;;5044178;28;20450;-80
2023/05/17 07:46:03;;;;;;;0.50;0.30;;;22.80;66.80;;;;;;5052890;28;20562;-78
2023/05/17 07:48:30;;;;;;;0.50;0.30;;;22.90;64.20;;;;;;5049676;28;20449;-81
2023/05/17 07:50:57;;;;;;;0.50;0.40;;;24.00;70.30;;;;;;5048097;28;20469;-80
2023/05/17 07:53:24;;;;;;;0.50;0.40;;;24.60;59.70;;;;;;5044266;28;20450;-81
2023/05/17 07:55:50;;;;;;;0.80;0.43;;;24.50;60.80;;;;;;5046887;28;20477;-82
2023/05/17 07:58:17;;;;;;;0.50;0.30;;;24.90;64.00;;;;;;5049582;28;20441;-80
2023/05/17 08:00:45;;;;;;;1.63;0.77;;;25.70;59.30;;;;;;5049785;28;20477;-82
2023/05/17 08:03:12;;;;;;;0.50;0.30;;;26.00;57.30;;;;;;5045710;28;20452;-82
2023/05/17 08:05:39;;;;;;;0.50;0.30;;;25.50;58.70;;;;;;5050795;28;20477;-81
2023/05/17 08:08:06;;;;;;;0.50;0.40;;;24.80;57.40;;;;;;5048497;28;20451;-82
2023/05/17 08:10:34;;;;;;;0.50;0.30;;;24.40;56.60;;;;;;5045061;28;20461;-81
2023/05/17 08:13:02;;;;;;;0.50;0.40;;;23.50;57.20;;;;;;5045187;28;20478;-81
2023/05/17 08:15:29;;;;;;;1.37;0.43;;;23.90;58.60;;;;;;5051065;28;20810;-81
2023/05/17 08:17:57;;;;;;;0.50;0.40;;;24.20;58.40;;;;;;5041492;28;20478;-81
2023/05/17 08:20:24;;;;;;;0.50;0.30;;;22.60;57.70;;;;;;5043089;28;20469;-81
2023/05/17 08:22:51;;;;;;;0.50;0.30;;;21.60;61.40;;;;;;5047819;28;20453;-81
2023/05/17 08:25:19;;;;;;;0.50;0.30;;;20.50;62.00;;;;;;5044766;28;20493;-81
2023/05/17 08:27:46;;;;;;;0.50;0.30;;;20.00;64.50;;;;;;5044102;28;20814;-81
2023/05/17 08:30:13;;;;;;;0.50;0.40;;;20.60;64.60;;;;;;5045623;28;20515;-81
2023/05/17 08:32:39;;;;;;;0.50;0.30;;;20.50;62.80;;;;;;5048053;28;20448;-81
2023/05/17 08:35:08;;;;;;;0.50;0.30;;;19.80;65.00;;;;;;5045847;28;20983;-82
2023/05/17 08:37:34;;;;;;;0.50;0.40;;;19.00;65.30;;;;;;5043825;28;20450;-81
2023/05/17 08:40:01;;;;;;;0.50;0.40;;;18.40;66.90;;;;;;5043905;28;20469;-78
2023/05/17 08:42:29;;;;;;;2.93;0.40;;;18.40;67.80;;;;;;5047126;28;20494;-82
2023/05/17 08:44:56;;;;;;;0.50;0.30;;;18.70;71.30;;;;;;5046546;28;20484;-81
2023/05/17 08:47:28;;;;;;;0.50;0.30;;;18.60;69.60;;;;;;5042499;28;20450;-83
2023/05/17 08:49:59;;;;;;;0.50;0.40;;;18.80;73.50;;;;;;5043415;28;20582;-81
2023/05/17 08:52:29;;;;;;;4.53;0.60;;;18.10;69.00;;;;;;5043384;28;20437;-82
2023/05/17 08:54:56;;;;;;;0.50;0.30;;;17.70;71.20;;;;;;5043358;28;20445;-80
2023/05/17 08:57:27;;;;;;;0.50;0.30;;;17.20;72.50;;;;;;5043065;28;20621;-82
2023/05/17 08:59:55;;;;;;;0.50;0.37;;;16.90;71.30;;;;;;5042845;28;21017;-82
2023/05/17 09:02:24;;;;;;;0.50;0.40;;;16.80;77.20;;;;;;5046510;28;20523;-81
2023/05/17 09:04:54;;;;;;;0.70;0.60;;;18.30;82.30;;;;;;5039934;28;20818;-83
2023/05/17 09:07:21;;;;;;;0.50;0.30;;;20.30;77.10;;;;;;5045103;28;20476;-81
2023/05/17 09:09:51;;;;;;;0.50;0.30;;;22.60;67.80;;;;;;5047269;28;20464;-83
2023/05/17 09:12:18;;;;;;;0.87;0.60;;;22.80;64.00;;;;;;5049525;28;20449;-82
2023/05/17 09:14:45;;;;;;;0.50;0.30;;;22.60;62.20;;;;;;5053688;28;20456;-81
2023/05/17 09:17:15;;;;;;;1.23;0.97;;;21.70;64.60;;;;;;5050819;28;20450;-82
2023/05/17 09:19:44;;;;;;;0.50;0.40;;;20.80;64.60;;;;;;5047730;28;20460;-80
2023/05/17 09:22:13;;;;;;;0.70;0.40;;;20.10;67.00;;;;;;5045302;28;20909;-82
2023/05/17 09:24:40;;;;;;;0.50;0.30;;;19.20;66.60;;;;;;5042656;28;21042;-80
2023/05/17 09:27:09;;;;;;;0.50;0.40;;;18.50;69.30;;;;;;5044033;28;20450;-82
2023/05/17 09:29:36;;;;;;;0.50;0.40;;;18.00;71.00;;;;;;5045731;28;20452;-83
2023/05/17 09:32:13;;;;;;;0.50;0.30;;;17.70;70.30;;;;;;5047471;28;20437;-78
2023/05/17 09:34:40;;;;;;;0.50;0.30;;;18.50;75.30;;;;;;5042855;28;20433;-82
2023/05/17 09:37:13;;;;;;;3.03;0.97;;;20.30;72.00;;;;;;5043040;28;20441;-81
2023/05/17 09:39:40;;;;;;;0.50;0.30;;;20.60;65.80;;;;;;5045988;28;20682;-81
2023/05/17 09:42:08;;;;;;;0.90;0.50;;;19.90;64.00;;;;;;5045855;28;20513;-79
2023/05/17 09:44:46;;;;;;;0.50;0.30;;;19.30;65.50;;;;;;5045705;28;20794;-82
2023/05/17 09:47:25;;;;;;;0.50;0.30;;;18.90;69.30;;;;;;5043811;28;20839;-82
2023/05/17 09:49:52;;;;;;;0.50;0.30;;;19.50;71.00;;;;;;5042362;28;20549;-82
2023/05/17 09:52:20;;;;;;;0.50;0.30;;;20.50;65.30;;;;;;5044221;28;20453;-82
2023/05/17 09:54:56;;;;;;;0.50;0.40;;;21.90;61.90;;;;;;5046118;28;20473;-81
2023/05/17 09:57:26;;;;;;;0.50;0.40;;;23.40;60.20;;;;;;5042487;28;20449;-80
2023/05/17 09:59:56;;;;;;;0.50;0.30;;;25.00;58.90;;;;;;5042903;28;21031;-83
2023/05/17 10:02:27;;;;;;;0.50;0.30;;;26.30;58.00;;;;;;5044574;28;20453;-84
2023/05/17 10:04:56;;;;;;;1.07;0.83;;;27.00;54.30;;;;;;5046008;28;20455;-82
2023/05/17 10:07:25;;;;;;;0.50;0.30;;;25.60;55.00;;;;;;5045689;28;22040;-82
2023/05/17 10:09:53;;;;;;;0.50;0.37;;;23.90;54.00;;;;;;5039349;28;20586;-81
2023/05/17 10:12:23;;;;;;;0.50;0.30;;;24.30;59.10;;;;;;5043809;28;20442;-83
2023/05/17 10:14:51;;;;;;;0.50;0.30;;;25.40;57.10;;;;;;5045885;28;20441;-81
2023/05/17 10:17:19;;;;;;;0.50;0.40;;;26.40;55.10;;;;;;5042903;28;20945;-83
2023/05/17 10:19:46;;;;;;;0.50;0.40;;;27.00;52.50;;;;;;5041894;28;20958;-82
2023/05/17 10:22:14;;;;;;;0.50;0.30;;;27.80;52.90;;;;;;5042324;28;20441;-81
2023/05/17 10:24:42;;;;;;;0.50;0.30;;;27.90;51.90;;;;;;5053705;28;20467;-81
2023/05/17 10:27:10;;;;;;;0.50;0.30;;;26.80;53.30;;;;;;5045908;28;20478;-79
2023/05/17 10:29:40;;;;;;;0.50;0.30;;;26.90;55.50;;;;;;5045275;28;20491;-79
2023/05/17 10:32:08;;;;;;;0.50;0.30;;;26.70;51.70;;;;;;5044403;28;20449;-81
2023/05/17 10:34:36;;;;;;;4.00;0.50;;;27.00;53.50;;;;;;5042535;28;20450;-83
2023/05/17 10:37:04;;;;;;;0.60;0.50;;;26.70;52.30;;;;;;5044476;28;20956;-80
2023/05/17 10:39:33;;;;;;;0.50;0.30;;;25.80;50.60;;;;;;5039286;28;20461;-83
2023/05/17 10:42:03;;;;;;;0.60;0.50;;;24.80;51.90;;;;;;5047265;28;20533;-81
2023/05/17 10:44:32;;;;;;;2.77;1.80;;;24.80;51.90;;;;;;5049417;28;20800;-82
2023/05/17 10:47:00;;;;;;;0.50;0.30;;;25.10;53.50;;;;;;5049821;28;20503;-83
2023/05/17 10:49:31;;;;;;;0.70;0.70;;;25.40;52.90;;;;;;5047813;28;20465;-83
2023/05/17 10:51:58;;;;;;;0.50;0.30;;;25.80;55.80;;;;;;5041693;28;20453;-83
2023/05/17 10:54:35;;;;;;;0.50;0.30;;;25.90;50.10;;;;;;5041442;28;20948;-82
2023/05/17 10:57:04;;;;;;;0.50;0.30;;;26.50;52.70;;;;;;5050102;28;20443;-83
2023/05/17 10:59:32;;;;;;;0.50;0.30;;;26.80;49.90;;;;;;5042793;28;20465;-80
2023/05/17 11:02:03;;;;;;;0.50;0.30;;;27.70;50.00;;;;;;5041707;28;20837;-79
2023/05/17 11:04:34;;;;;;;0.50;0.30;;;26.30;49.70;;;;;;5046559;28;20445;-82
2023/05/17 11:07:24;;;;;;;0.50;0.30;;;26.20;49.40;;;;;;5030131;28;20865;-82
2023/05/17 11:09:53;;;;;;;0.50;0.40;;;26.90;52.70;;;;;;5047222;28;20472;-82
2023/05/17 11:12:29;;;;;;;0.50;0.30;;;27.70;51.50;;;;;;5049016;28;20441;-81
2023/05/17 11:14:56;;;;;;;0.50;0.30;;;28.00;49.70;;;;;;5046932;28;20940;-82
2023/05/17 11:17:27;;;;;;;0.50;0.30;;;28.50;50.60;;;;;;5046499;28;20443;-82
2023/05/17 11:20:01;;;;;;;0.50;0.30;;;28.60;49.10;;;;;;5047010;28;20479;-82
2023/05/17 11:22:35;;;;;;;0.50;0.30;;;29.00;47.70;;;;;;5044570;28;20460;-82
2023/05/17 11:25:07;;;;;;;0.50;0.40;;;28.60;50.30;;;;;;5045656;28;20884;-82
2023/05/17 11:27:37;;;;;;;0.60;0.40;;;29.10;50.50;;;;;;5033248;28;20521;-82
2023/05/17 11:30:20;;;;;;;0.50;0.40;;;29.00;48.90;;;;;;5042846;28;20473;-81
2023/05/17 11:32:50;;;;;;;0.50;0.30;;;28.40;48.40;;;;;;5037883;28;20445;-82
2023/05/17 11:35:18;;;;;;;0.50;0.30;;;28.10;49.20;;;;;;5046086;28;20444;-80
2023/05/17 11:37:45;;;;;;;0.50;0.30;;;28.20;48.20;;;;;;5048096;28;20439;-83
2023/05/17 11:40:13;;;;;;;1.60;0.50;;;27.50;47.00;;;;;;5047881;28;20467;-82
2023/05/17 11:42:40;;;;;;;0.50;0.37;;;28.10;47.30;;;;;;5045175;28;20873;-82
2023/05/17 11:45:08;;;;;;;0.50;0.30;;;26.90;46.60;;;;;;5045389;28;20438;-80
2023/05/17 11:47:40;;;;;;;0.60;0.40;;;26.00;47.20;;;;;;5037018;28;20469;-81
2023/05/17 11:50:10;;;;;;;0.50;0.30;;;25.90;50.30;;;;;;5044559;28;20470;-82
2023/05/17 11:52:40;;;;;;;0.63;0.53;;;26.10;48.90;;;;;;5037188;28;20433;-81
2023/05/17 11:55:07;;;;;;;0.50;0.30;;;26.20;49.70;;;;;;5044835;28;20446;-81
2023/05/17 11:57:38;;;;;;;0.50;0.30;;;26.80;50.30;;;;;;5047935;28;20436;-82
2023/05/17 12:00:06;;;;;;;0.50;0.30;;;27.10;48.70;;;;;;5047365;28;20464;-84
2023/05/17 12:02:33;;;;;;;0.50;0.30;;;27.10;48.90;;;;;;5053015;28;20434;-81
2023/05/17 12:05:00;;;;;;;1.43;0.40;;;27.90;51.10;;;;;;5044695;28;20442;-80
2023/05/17 12:07:28;;;;;;;0.50;0.30;;;28.20;46.80;;;;;;5044386;28;20480;-80
2023/05/17 12:09:55;;;;;;;0.50;0.30;;;28.50;48.50;;;;;;5043946;28;20470;-81
2023/05/17 12:12:22;;;;;;;0.50;0.30;;;28.80;48.40;;;;;;5044823;28;20544;-83
2023/05/17 12:14:49;;;;;;;0.50;0.30;;;28.60;46.60;;;;;;5047633;28;20452;-81
2023/05/17 12:17:30;;;;;;;0.50;0.30;;;29.30;48.00;;;;;;5046890;28;20465;-82
2023/05/17 12:20:06;;;;;;;0.50;0.30;;;28.50;47.20;;;;;;5043931;28;20468;-80
2023/05/17 12:22:35;;;;;;;0.50;0.30;;;29.10;48.40;;;;;;5046012;28;20441;-82
2023/05/17 12:25:02;;;;;;;2.10;1.07;;;29.50;47.60;;;;;;5047513;28;20457;-81
2023/05/17 12:27:30;;;;;;;0.50;0.30;;;29.90;48.00;;;;;;5044428;28;20480;-82
2023/05/17 12:29:56;;;;;;;0.50;0.30;;;29.30;43.70;;;;;;5043938;28;20488;-83
2023/05/17 12:32:24;;;;;;;1.00;0.50;;;28.80;45.60;;;;;;5045079;28;20446;-81
2023/05/17 12:34:51;;;;;;;0.50;0.30;;;28.60;46.20;;;;;;5047279;28;20447;-82
2023/05/17 12:37:17;;;;;;;0.50;0.30;;;28.80;44.20;;;;;;5046222;28;20445;-81
2023/05/17 12:39:46;;;;;;;0.50;0.30;;;28.60;46.70;;;;;;5043165;28;20472;-81
2023/05/17 12:42:13;;;;;;;0.50;0.30;;;28.30;44.30;;;;;;5042486;28;20450;-79
2023/05/17 12:44:40;;;;;;;0.50;0.30;;;28.70;46.40;;;;;;5049581;28;20445;-82
2023/05/17 12:47:09;;;;;;;0.50;0.30;;;28.50;48.00;;;;;;5039464;28;20478;-81
2023/05/17 12:49:39;;;;;;;0.50;0.30;;;28.30;47.30;;;;;;5046338;28;20461;-81
2023/05/17 12:52:07;;;;;;;0.50;0.30;;;28.30;47.40;;;;;;5046745;28;20959;-83
2023/05/17 12:54:34;;;;;;;0.50;0.30;;;28.30;45.80;;;;;;5043624;28;20457;-83